Nearby METAR Reports

 

KNUQ - Moffett Nas/Mtn, California, USA
Distance from station: N 9mi, 14km
Updated: Tue, 25-Apr-2017 2:56am PDT
Clear
Clear
 Wind from calm
Wind: Calm
Temperature: 52°F , 11°C
Dew Point: 46°F , 8°C
Humidity: 82%
Barometer: 30.08 inHg , 1018.6 hPa
Clouds: Clear
Visibility: 10 miles , 16 km
2017/04/25 09:56 KNUQ 250956Z AUTO 00000KT 10SM CLR 11/08 A3008 RMK AO2 SLP187 T01110078
KSJC - San Jose, California, USA
Distance from station: NE 9mi, 14km
Updated: Tue, 25-Apr-2017 2:53am PDT
Clear
Clear
 Wind from W
Wind: W 7 mph , 11 km/h
Temperature: 54°F , 12°C
Dew Point: 45°F , 7°C
Humidity: 72%
Barometer: 30.07 inHg , 1018.3 hPa
Clouds: Clear
Visibility: 10 miles , 16 km
2017/04/25 09:53 KSJC 250953Z AUTO 26006KT 10SM CLR 12/07 A3007 RMK AO2 SLP183 T01170072
 
KRHV - San Jose/Reid, California, USA
Distance from station: ENE 12mi, 19km
Updated: Mon, 24-Apr-2017 9:47pm PDT
NOT Current
Overcast
Overcast
 Wind from WNW
Wind: WNW 12 mph , 19 km/h
Temperature: 55°F , 13°C
Dew Point: 48°F , 9°C
Humidity: 77%
Barometer: 30.10 inHg , 1019.3 hPa
Clouds: Overcast
Visibility: 10 miles , 16 km
Cloud details: Overcast 2800 ft
2017/04/25 04:47 KRHV 250447Z 30010KT 10SM OVC028 13/09 A3010 RMK LAST
KPAO - Palo Alto, California, USA
Distance from station: NNW 14mi, 23km
Updated: Mon, 24-Apr-2017 8:47pm PDT
NOT Current
Mostly Cloudy
Mostly Cloudy
 Wind from WNW
Wind: WNW 14 mph , 22 km/h
Temperature: 57°F , 14°C
Dew Point: 48°F , 9°C
Humidity: 72%
Barometer: 30.06 inHg , 1017.9 hPa
Clouds: Mostly Cloudy
Visibility: 10 miles , 16 km
Cloud details: Partly Cloudy 2400 ft
Mostly Cloudy 11000 ft
2017/04/25 03:47 KPAO 250347Z 30012KT 10SM SCT024 BKN110 14/09 A3006 RMK LAST
 
KSQL - San Carlos Airpo, California, USA
Distance from station: NW 21mi, 34km
Updated: Tue, 25-Apr-2017 3:15am PDT
Clear
Clear
 Wind from W
Wind: W 8 mph , 13 km/h
Temperature: 54°F , 12°C
Dew Point: 45°F , 7°C
Humidity: 72%
Barometer: 30.07 inHg , 1018.3 hPa
Clouds: Clear
Visibility: 10 miles , 16 km
2017/04/25 10:15 KSQL 251015Z AUTO 27007KT 10SM CLR 12/07 A3007 RMK AO2
KWVI - Watsonville, California, USA
Distance from station: SSE 27mi, 44km
Updated: Tue, 25-Apr-2017 3:04am PDT
Mist, Partly cloudy
Mist, Partly cloudy
 Wind from NW
Wind: NW 5 mph , 7 km/h
Temperature: 46°F , 8°C
Wind Chill: 44°F , 7°C
Dew Point: 46°F , 8°C
Humidity: 100%
Barometer: 30.07 inHg , 1018.3 hPa
Summary: Mist
Clouds: Partly Cloudy
Visibility: 5 miles , 8 km
Cloud details: Partly Cloudy 200 ft
2017/04/25 10:04 KWVI 251004Z AUTO 31004KT 5SM BR SCT002 08/08 A3007 RMK AO2 T00830083
 
KHWD - Hayward, California, USA
Distance from station: N 28mi, 44km
Updated: Tue, 25-Apr-2017 2:54am PDT
Clear
Clear
 Wind from calm
Wind: Calm
Temperature: 54°F , 12°C
Dew Point: 43°F , 6°C
Humidity: 67%
Barometer: 30.06 inHg , 1017.9 hPa
Clouds: Clear
Visibility: 10 miles , 16 km
2017/04/25 09:54 KHWD 250954Z AUTO 00000KT 10SM CLR 12/06 A3006 RMK AO2 SLP190 T01220061
KSFO - San Francisco, California, USA
Distance from station: NW 30mi, 49km
Updated: Tue, 25-Apr-2017 2:56am PDT
Few Clouds
Few Clouds
 Wind from W
Wind: W 14 mph , 22 km/h
Temperature: 52°F , 11°C
Dew Point: 46°F , 8°C
Humidity: 82%
Barometer: 30.07 inHg , 1018.3 hPa
Clouds: Few Clouds
Visibility: 10 miles , 16 km
Cloud details: Few Clouds 1500 ft
2017/04/25 09:56 KSFO 250956Z 28012KT 10SM FEW015 11/08 A3007 RMK AO2 SLP182 T01110083
 
KHAF - Half Moon Bay, California, USA
Distance from station: WNW 31mi, 50km
Updated: Tue, 25-Apr-2017 3:15am PDT
Mostly Cloudy
Mostly Cloudy
 Wind from NNW
Wind: NNW 9 mph , 15 km/h
Temperature: 52°F , 11°C
Dew Point: 48°F , 9°C
Humidity: 88%
Barometer: 30.08 inHg , 1018.6 hPa
Clouds: Mostly Cloudy
Visibility: 9 miles , 14 km
Cloud details: Mostly Cloudy 3100 ft
2017/04/25 10:15 KHAF 251015Z AUTO 34008KT 9SM BKN031 11/09 A3008 RMK AO2
KOAK - Oakland, California, USA
Distance from station: NNW 31mi, 50km
Updated: Tue, 25-Apr-2017 2:53am PDT
Few Clouds
Few Clouds
 Wind from WNW
Wind: WNW 12 mph , 19 km/h
Temperature: 55°F , 13°C
Dew Point: 45°F , 7°C
Humidity: 67%
Barometer: 30.06 inHg , 1017.9 hPa
Clouds: Few Clouds
Visibility: 10 miles , 16 km
Cloud details: Few Clouds 1000 ft
2017/04/25 09:53 KOAK 250953Z 30010KT 10SM FEW010 13/07 A3006 RMK AO2 SLP180 T01330072
 
KLVK - Livermore, California, USA
Distance from station: NNE 31mi, 51km
Updated: Tue, 25-Apr-2017 2:53am PDT
Clear
Clear
 Wind from SW
Wind: SW 6 mph , 9 km/h
Temperature: 50°F , 10°C
Wind Chill: 48°F , 9°C
Dew Point: 45°F , 7°C
Humidity: 82%
Barometer: 30.05 inHg , 1017.6 hPa
Clouds: Clear
Visibility: 10 miles , 16 km
2017/04/25 09:53 KLVK 250953Z AUTO 23005KT 10SM CLR 10/07 A3005 RMK AO2 SLP175 T01000072 TSNO
KCVH - Hollister Muni, California, USA
Distance from station: SE 42mi, 68km
Updated: Tue, 25-Apr-2017 3:10am PDT
Overcast
Overcast
 Wind from W
Wind: W 6 mph , 9 km/h
Temperature: 54°F , 12°C
Dew Point: 46°F , 8°C
Humidity: 77%
Barometer: 30.08 inHg , 1018.6 hPa
Clouds: Overcast
Visibility: 10 miles , 16 km
Cloud details: Overcast 2300 ft
2017/04/25 10:10 KCVH 251010Z AUTO 28005KT 10SM OVC023 12/08 A3008 RMK AO1
 
KSNS - Salinas, California, USA
Distance from station: SSE 48mi, 77km
Updated: Tue, 25-Apr-2017 2:53am PDT
Few Clouds
Few Clouds
 Wind from SW
Wind: SW 7 mph , 11 km/h
Temperature: 54°F , 12°C
Dew Point: 48°F , 9°C
Humidity: 82%
Barometer: 30.07 inHg , 1018.3 hPa
Clouds: Few Clouds
Visibility: 10 miles , 16 km
Cloud details: Few Clouds 3300 ft
2017/04/25 09:53 KSNS 250953Z 23006KT 10SM FEW033 12/09 A3007 RMK AO2 SLP192 T01170089
KMRY - Monterey, California, USA
Distance from station: SSE 49mi, 78km
Updated: Tue, 25-Apr-2017 2:54am PDT
Clear
Clear
 Wind from SSW
Wind: SSW 5 mph , 7 km/h
Temperature: 54°F , 12°C
Dew Point: 48°F , 9°C
Humidity: 82%
Barometer: 30.08 inHg , 1018.6 hPa
Clouds: Clear
Visibility: 10 miles , 16 km
2017/04/25 09:54 KMRY 250954Z 20004KT 10SM CLR 12/09 A3008 RMK AO2 SLP199 T01170094
 
KCCR - Concord, California, USA
Distance from station: N 50mi, 81km
Updated: Tue, 25-Apr-2017 2:53am PDT
Clear
Clear
 Wind from WSW
Wind: WSW 3 mph , 6 km/h
Temperature: 54°F , 12°C
Dew Point: 45°F , 7°C
Humidity: 72%
Barometer: 30.06 inHg , 1017.9 hPa
Clouds: Clear
Visibility: 10 miles , 16 km
2017/04/25 09:53 KCCR 250953Z AUTO 24003KT 10SM CLR 12/07 A3006 RMK AO2 SLP165 T01170072

Metar display script from Saratoga-Weather.org